sensor_id;sensor_type;location;lat;lon;timestamp;pressure;altitude;pressure_sealevel;temperature;humidity
52745;BME280;38637;49.984;20.426;2022-11-12T00:00:17;100836.66;;;8.02;84.53
52745;BME280;38637;49.984;20.426;2022-11-12T00:02:43;100854.22;;;8.06;84.26
52745;BME280;38637;49.984;20.426;2022-11-12T00:05:08;100850.25;;;8.02;84.48
52745;BME280;38637;49.984;20.426;2022-11-12T00:07:34;100837.28;;;7.91;84.36
52745;BME280;38637;49.984;20.426;2022-11-12T00:09:59;100863.41;;;7.98;84.57
52745;BME280;38637;49.984;20.426;2022-11-12T00:12:25;100840.81;;;7.85;84.49
52745;BME280;38637;49.984;20.426;2022-11-12T00:14:50;100864.69;;;7.96;84.27
52745;BME280;38637;49.984;20.426;2022-11-12T00:17:15;100837.88;;;7.79;84.17
52745;BME280;38637;49.984;20.426;2022-11-12T00:19:41;100852.72;;;7.83;84.10
52745;BME280;38637;49.984;20.426;2022-11-12T00:22:06;100857.38;;;7.90;84.34
52745;BME280;38637;49.984;20.426;2022-11-12T00:24:31;100795.38;;;7.45;83.96
52745;BME280;38637;49.984;20.426;2022-11-12T00:26:56;100861.53;;;7.86;84.17
52745;BME280;38637;49.984;20.426;2022-11-12T00:29:22;100863.59;;;7.83;84.07
52745;BME280;38637;49.984;20.426;2022-11-12T00:31:47;100866.31;;;7.83;84.25
52745;BME280;38637;49.984;20.426;2022-11-12T00:34:13;100875.53;;;7.82;84.00
52745;BME280;38637;49.984;20.426;2022-11-12T00:36:38;100868.44;;;7.81;84.09
52745;BME280;38637;49.984;20.426;2022-11-12T00:39:03;100871.16;;;7.81;83.97
52745;BME280;38637;49.984;20.426;2022-11-12T00:41:29;100871.75;;;7.83;84.11
52745;BME280;38637;49.984;20.426;2022-11-12T00:43:54;100861.31;;;7.80;83.89
52745;BME280;38637;49.984;20.426;2022-11-12T00:46:19;100852.31;;;7.73;84.07
52745;BME280;38637;49.984;20.426;2022-11-12T00:48:45;100835.75;;;7.68;83.93
52745;BME280;38637;49.984;20.426;2022-11-12T00:51:10;100825.28;;;7.58;83.75
52745;BME280;38637;49.984;20.426;2022-11-12T00:53:35;100859.00;;;7.77;83.94
52745;BME280;38637;49.984;20.426;2022-11-12T00:56:02;100849.41;;;7.75;84.07
52745;BME280;38637;49.984;20.426;2022-11-12T00:58:29;100861.31;;;7.80;84.49
52745;BME280;38637;49.984;20.426;2022-11-12T01:00:55;100860.28;;;7.81;84.28
52745;BME280;38637;49.984;20.426;2022-11-12T01:03:21;100864.47;;;7.84;83.92
52745;BME280;38637;49.984;20.426;2022-11-12T01:05:46;100856.09;;;7.86;83.98
52745;BME280;38637;49.984;20.426;2022-11-12T01:08:11;100867.59;;;7.88;84.02
52745;BME280;38637;49.984;20.426;2022-11-12T01:10:37;100855.88;;;7.80;83.91
52745;BME280;38637;49.984;20.426;2022-11-12T01:13:02;100864.47;;;7.84;83.85
52745;BME280;38637;49.984;20.426;2022-11-12T01:15:27;100844.56;;;7.70;84.23
52745;BME280;38637;49.984;20.426;2022-11-12T01:17:53;100871.16;;;7.88;83.81
52745;BME280;38637;49.984;20.426;2022-11-12T01:20:18;100866.56;;;7.89;84.31
52745;BME280;38637;49.984;20.426;2022-11-12T01:22:43;100864.47;;;7.84;84.26
52745;BME280;38637;49.984;20.426;2022-11-12T01:25:09;100863.22;;;7.87;83.98
52745;BME280;38637;49.984;20.426;2022-11-12T01:27:34;100861.53;;;7.86;84.10
52745;BME280;38637;49.984;20.426;2022-11-12T01:29:59;100870.75;;;7.85;84.04
52745;BME280;38637;49.984;20.426;2022-11-12T01:32:25;100866.13;;;7.78;83.79
52745;BME280;38637;49.984;20.426;2022-11-12T01:34:51;100870.09;;;7.82;84.08
52745;BME280;38637;49.984;20.426;2022-11-12T01:37:17;100859.84;;;7.78;84.07
52745;BME280;38637;49.984;20.426;2022-11-12T01:39:42;100851.06;;;7.69;83.99
52745;BME280;38637;49.984;20.426;2022-11-12T01:42:08;100872.19;;;7.80;83.99
52745;BME280;38637;49.984;20.426;2022-11-12T01:44:36;100834.28;;;7.59;83.65
52745;BME280;38637;49.984;20.426;2022-11-12T01:47:10;100869.88;;;7.77;83.83
52745;BME280;38637;49.984;20.426;2022-11-12T01:49:52;100846.03;;;7.59;84.10
52745;BME280;38637;49.984;20.426;2022-11-12T01:52:33;100863.41;;;7.72;83.99
52745;BME280;38637;49.984;20.426;2022-11-12T01:55:06;100847.03;;;7.58;83.89
52745;BME280;38637;49.984;20.426;2022-11-12T01:57:37;100862.09;;;7.61;83.99
52745;BME280;38637;49.984;20.426;2022-11-12T02:00:08;100870.91;;;7.70;83.97
52745;BME280;38637;49.984;20.426;2022-11-12T02:02:36;100864.66;;;7.69;84.02
52745;BME280;38637;49.984;20.426;2022-11-12T02:05:04;100870.09;;;7.69;84.14
52745;BME280;38637;49.984;20.426;2022-11-12T02:07:31;100855.63;;;7.62;84.00
52745;BME280;38637;49.984;20.426;2022-11-12T02:09:59;100861.91;;;7.63;83.84
52745;BME280;38637;49.984;20.426;2022-11-12T02:12:25;100840.94;;;7.50;83.84
52745;BME280;38637;49.984;20.426;2022-11-12T02:15:09;100846.84;;;7.60;83.81
52745;BME280;38637;49.984;20.426;2022-11-12T02:17:35;100839.72;;;7.59;83.85
52745;BME280;38637;49.984;20.426;2022-11-12T02:20:00;100847.28;;;7.64;83.61
52745;BME280;38637;49.984;20.426;2022-11-12T02:22:25;100857.31;;;7.70;83.72
52745;BME280;38637;49.984;20.426;2022-11-12T02:24:51;100843.50;;;7.58;83.42
52745;BME280;38637;49.984;20.426;2022-11-12T02:27:16;100859.22;;;7.69;83.18
52745;BME280;38637;49.984;20.426;2022-11-12T02:29:42;100835.75;;;7.48;82.94
52745;BME280;38637;49.984;20.426;2022-11-12T02:32:13;100804.94;;;7.28;83.06
52745;BME280;38637;49.984;20.426;2022-11-12T02:34:39;100850.16;;;7.55;83.16
52745;BME280;38637;49.984;20.426;2022-11-12T02:37:05;100855.41;;;7.57;83.44
52745;BME280;38637;49.984;20.426;2022-11-12T02:39:31;100834.69;;;7.49;83.36
52745;BME280;38637;49.984;20.426;2022-11-12T02:41:57;100856.44;;;7.56;83.47
52745;BME280;38637;49.984;20.426;2022-11-12T02:44:22;100858.13;;;7.57;83.64
52745;BME280;38637;49.984;20.426;2022-11-12T02:46:47;100860.84;;;7.57;83.48
52745;BME280;38637;49.984;20.426;2022-11-12T02:49:13;100830.91;;;7.44;83.65
52745;BME280;38637;49.984;20.426;2022-11-12T02:51:38;100837.63;;;7.48;83.55
52745;BME280;38637;49.984;20.426;2022-11-12T02:54:03;100848.09;;;7.57;83.73
52745;BME280;38637;49.984;20.426;2022-11-12T02:56:29;100812.09;;;7.35;83.73
52745;BME280;38637;49.984;20.426;2022-11-12T02:58:54;100840.75;;;7.51;83.44
52745;BME280;38637;49.984;20.426;2022-11-12T03:01:20;100846.22;;;7.58;83.54
52745;BME280;38637;49.984;20.426;2022-11-12T03:03:45;100836.38;;;7.57;83.31
52745;BME280;38637;49.984;20.426;2022-11-12T03:06:10;100836.38;;;7.57;83.31
52745;BME280;38637;49.984;20.426;2022-11-12T03:08:36;100836.81;;;7.54;83.29
52745;BME280;38637;49.984;20.426;2022-11-12T03:11:12;100836.78;;;7.47;82.99
52745;BME280;38637;49.984;20.426;2022-11-12T03:13:38;100841.78;;;7.44;83.13
52745;BME280;38637;49.984;20.426;2022-11-12T03:16:04;100846.16;;;7.38;83.14
52745;BME280;38637;49.984;20.426;2022-11-12T03:18:30;100854.50;;;7.36;83.21
52745;BME280;38637;49.984;20.426;2022-11-12T03:20:56;100833.16;;;7.20;83.05
52745;BME280;38637;49.984;20.426;2022-11-12T03:23:22;100855.72;;;7.21;83.22
52745;BME280;38637;49.984;20.426;2022-11-12T03:25:47;100846.72;;;7.20;82.96
52745;BME280;38637;49.984;20.426;2022-11-12T03:28:14;100862.63;;;7.23;83.09
52745;BME280;38637;49.984;20.426;2022-11-12T03:30:41;100864.28;;;7.18;83.17
52745;BME280;38637;49.984;20.426;2022-11-12T03:33:09;100852.09;;;7.07;83.12
52745;BME280;38637;49.984;20.426;2022-11-12T03:35:37;100859.38;;;7.00;82.92
52745;BME280;38637;49.984;20.426;2022-11-12T03:38:04;100841.97;;;6.87;82.88
52745;BME280;38637;49.984;20.426;2022-11-12T03:40:30;100860.84;;;6.96;83.10
52745;BME280;38637;49.984;20.426;2022-11-12T03:42:56;100839.81;;;6.76;82.98
52745;BME280;38637;49.984;20.426;2022-11-12T03:45:23;100858.03;;;6.82;83.04
52745;BME280;38637;49.984;20.426;2022-11-12T03:47:50;100862.41;;;6.77;82.80
52745;BME280;38637;49.984;20.426;2022-11-12T03:50:17;100857.13;;;6.68;82.93
52745;BME280;38637;49.984;20.426;2022-11-12T03:52:48;100861.22;;;6.58;82.91
52745;BME280;38637;49.984;20.426;2022-11-12T03:55:15;100862.00;;;6.52;83.03
52745;BME280;38637;49.984;20.426;2022-11-12T03:57:41;100864.50;;;6.47;83.09
52745;BME280;38637;49.984;20.426;2022-11-12T04:00:08;100853.22;;;6.43;83.21
52745;BME280;38637;49.984;20.426;2022-11-12T04:02:34;100861.53;;;6.41;83.40
52745;BME280;38637;49.984;20.426;2022-11-12T04:05:00;100843.88;;;6.24;83.20
52745;BME280;38637;49.984;20.426;2022-11-12T04:07:44;100822.03;;;6.04;83.16
52745;BME280;38637;49.984;20.426;2022-11-12T04:10:27;100845.03;;;6.15;83.31
52745;BME280;38637;49.984;20.426;2022-11-12T04:12:56;100851.72;;;6.12;83.65
52745;BME280;38637;49.984;20.426;2022-11-12T04:15:40;100851.41;;;6.01;83.44
52745;BME280;38637;49.984;20.426;2022-11-12T04:18:05;100851.50;;;5.92;83.52
52745;BME280;38637;49.984;20.426;2022-11-12T04:20:49;100851.91;;;5.89;84.37
52745;BME280;38637;49.984;20.426;2022-11-12T04:23:32;100835.38;;;5.84;84.04
52745;BME280;38637;49.984;20.426;2022-11-12T04:25:58;100847.91;;;5.85;83.99
52745;BME280;38637;49.984;20.426;2022-11-12T04:28:42;100827.13;;;5.71;83.85
52745;BME280;38637;49.984;20.426;2022-11-12T04:31:27;100849.47;;;5.73;83.77
52745;BME280;38637;49.984;20.426;2022-11-12T04:33:52;100836.84;;;5.65;83.77
52745;BME280;38637;49.984;20.426;2022-11-12T04:36:18;100816.28;;;5.49;84.45
52745;BME280;38637;49.984;20.426;2022-11-12T04:38:43;100821.03;;;5.47;84.19
52745;BME280;38637;49.984;20.426;2022-11-12T04:41:08;100847.25;;;5.62;83.81
52745;BME280;38637;49.984;20.426;2022-11-12T04:43:52;100815.75;;;5.39;83.70
52745;BME280;38637;49.984;20.426;2022-11-12T04:46:36;100840.88;;;5.48;83.76
52745;BME280;38637;49.984;20.426;2022-11-12T04:49:02;100834.19;;;5.50;83.48
52745;BME280;38637;49.984;20.426;2022-11-12T04:51:27;100823.44;;;5.36;83.88
52745;BME280;38637;49.984;20.426;2022-11-12T04:54:11;100847.94;;;5.49;83.66
52745;BME280;38637;49.984;20.426;2022-11-12T04:56:36;100833.03;;;5.38;83.42
52745;BME280;38637;49.984;20.426;2022-11-12T04:59:01;100862.41;;;5.56;83.05
52745;BME280;38637;49.984;20.426;2022-11-12T05:01:27;100822.50;;;5.28;83.48
52745;BME280;38637;49.984;20.426;2022-11-12T05:03:52;100862.16;;;5.51;83.42
52745;BME280;38637;49.984;20.426;2022-11-12T05:06:17;100859.25;;;5.52;83.53
52745;BME280;38637;49.984;20.426;2022-11-12T05:09:01;100855.41;;;5.47;83.21
52745;BME280;38637;49.984;20.426;2022-11-12T05:11:26;100871.06;;;5.45;82.81
52745;BME280;38637;49.984;20.426;2022-11-12T05:13:52;100859.88;;;5.33;83.06
52745;BME280;38637;49.984;20.426;2022-11-12T05:16:17;100859.50;;;5.36;82.68
52745;BME280;38637;49.984;20.426;2022-11-12T05:18:42;100863.13;;;5.28;82.53
52745;BME280;38637;49.984;20.426;2022-11-12T05:21:08;100859.97;;;5.25;82.36
52745;BME280;38637;49.984;20.426;2022-11-12T05:23:52;100855.03;;;5.14;82.38
52745;BME280;38637;49.984;20.426;2022-11-12T05:26:17;100868.84;;;5.19;82.39
52745;BME280;38637;49.984;20.426;2022-11-12T05:28:43;100866.53;;;5.16;82.35
52745;BME280;38637;49.984;20.426;2022-11-12T05:31:08;100859.72;;;5.05;82.58
52745;BME280;38637;49.984;20.426;2022-11-12T05:33:33;100871.19;;;5.07;82.34
52745;BME280;38637;49.984;20.426;2022-11-12T05:35:59;100870.75;;;5.03;82.16
52745;BME280;38637;49.984;20.426;2022-11-12T05:38:24;100857.13;;;4.97;82.17
52745;BME280;38637;49.984;20.426;2022-11-12T05:40:50;100870.19;;;4.93;82.13
52745;BME280;38637;49.984;20.426;2022-11-12T05:43:15;100875.03;;;4.98;82.37
52745;BME280;38637;49.984;20.426;2022-11-12T05:45:43;100825.25;;;4.63;82.13
52745;BME280;38637;49.984;20.426;2022-11-12T05:48:09;100838.28;;;4.74;82.42
52745;BME280;38637;49.984;20.426;2022-11-12T05:50:34;100821.22;;;4.58;82.27
52745;BME280;38637;49.984;20.426;2022-11-12T05:53:00;100867.13;;;4.81;82.46
52745;BME280;38637;49.984;20.426;2022-11-12T05:55:25;100864.97;;;4.77;82.24
52745;BME280;38637;49.984;20.426;2022-11-12T05:57:50;100883.16;;;4.83;82.32
52745;BME280;38637;49.984;20.426;2022-11-12T06:00:16;100870.47;;;4.83;82.21
52745;BME280;38637;49.984;20.426;2022-11-12T06:02:42;100887.19;;;4.87;82.62
52745;BME280;38637;49.984;20.426;2022-11-12T06:05:07;100876.38;;;4.87;82.00
52745;BME280;38637;49.984;20.426;2022-11-12T06:07:33;100890.16;;;4.92;82.41
52745;BME280;38637;49.984;20.426;2022-11-12T06:09:58;100854.88;;;4.86;82.90
52745;BME280;38637;49.984;20.426;2022-11-12T06:12:23;100906.84;;;5.11;82.72
52745;BME280;38637;49.984;20.426;2022-11-12T06:14:49;100867.22;;;4.88;82.12
52745;BME280;38637;49.984;20.426;2022-11-12T06:17:14;100904.97;;;5.11;82.30
52745;BME280;38637;49.984;20.426;2022-11-12T06:19:39;100886.31;;;5.01;81.88
52745;BME280;38637;49.984;20.426;2022-11-12T06:22:05;100908.56;;;5.12;81.99
52745;BME280;38637;49.984;20.426;2022-11-12T06:24:30;100876.63;;;4.92;81.84
52745;BME280;38637;49.984;20.426;2022-11-12T06:26:55;100900.81;;;5.09;81.56
52745;BME280;38637;49.984;20.426;2022-11-12T06:29:20;100908.63;;;5.18;81.46
52745;BME280;38637;49.984;20.426;2022-11-12T06:31:46;100880.38;;;5.06;81.50
52745;BME280;38637;49.984;20.426;2022-11-12T06:34:11;100907.69;;;5.26;81.70
52745;BME280;38637;49.984;20.426;2022-11-12T06:36:37;100903.97;;;5.27;81.74
52745;BME280;38637;49.984;20.426;2022-11-12T06:39:02;100910.75;;;5.38;81.77
52745;BME280;38637;49.984;20.426;2022-11-12T06:41:28;100894.41;;;5.31;81.78
52745;BME280;38637;49.984;20.426;2022-11-12T06:43:53;100916.53;;;5.49;81.55
52745;BME280;38637;49.984;20.426;2022-11-12T06:46:19;100881.53;;;5.33;81.65
52745;BME280;38637;49.984;20.426;2022-11-12T06:48:44;100911.56;;;5.53;81.90
52745;BME280;38637;49.984;20.426;2022-11-12T06:51:15;100917.78;;;5.68;81.91
52745;BME280;38637;49.984;20.426;2022-11-12T06:53:41;100898.59;;;5.48;81.95
52745;BME280;38637;49.984;20.426;2022-11-12T06:56:07;100915.34;;;5.73;82.16
52745;BME280;38637;49.984;20.426;2022-11-12T06:58:32;100921.22;;;5.77;81.96
52745;BME280;38637;49.984;20.426;2022-11-12T07:01:12;100913.16;;;5.84;82.26
52745;BME280;38637;49.984;20.426;2022-11-12T07:03:39;100906.72;;;5.85;82.28
52745;BME280;38637;49.984;20.426;2022-11-12T07:06:06;100915.19;;;5.96;82.34
52745;BME280;38637;49.984;20.426;2022-11-12T07:08:32;100924.09;;;6.12;82.21
52745;BME280;38637;49.984;20.426;2022-11-12T07:10:58;100909.13;;;6.16;82.14
52745;BME280;38637;49.984;20.426;2022-11-12T07:13:23;100889.94;;;6.17;82.23
52745;BME280;38637;49.984;20.426;2022-11-12T07:15:49;100888.31;;;6.23;82.49
52745;BME280;38637;49.984;20.426;2022-11-12T07:18:14;100908.09;;;6.45;82.61
52745;BME280;38637;49.984;20.426;2022-11-12T07:20:40;100904.81;;;6.50;82.48
52745;BME280;38637;49.984;20.426;2022-11-12T07:23:05;100911.94;;;6.57;82.41
52745;BME280;38637;49.984;20.426;2022-11-12T07:25:31;100914.72;;;6.64;82.39
52745;BME280;38637;49.984;20.426;2022-11-12T07:27:56;100904.09;;;6.69;82.39
52745;BME280;38637;49.984;20.426;2022-11-12T07:30:21;100920.28;;;6.84;82.86
52745;BME280;38637;49.984;20.426;2022-11-12T07:32:47;100909.91;;;6.94;82.93
52745;BME280;38637;49.984;20.426;2022-11-12T07:35:12;100900.75;;;7.02;83.29
52745;BME280;38637;49.984;20.426;2022-11-12T07:37:37;100902.06;;;7.12;83.70
52745;BME280;38637;49.984;20.426;2022-11-12T07:40:03;100898.56;;;7.25;83.96
52745;BME280;38637;49.984;20.426;2022-11-12T07:42:32;100880.59;;;7.24;83.87
52745;BME280;38637;49.984;20.426;2022-11-12T07:44:57;100890.69;;;7.44;83.48
52745;BME280;38637;49.984;20.426;2022-11-12T07:47:23;100890.34;;;7.53;83.04
52745;BME280;38637;49.984;20.426;2022-11-12T07:49:48;100852.03;;;7.42;82.93
52745;BME280;38637;49.984;20.426;2022-11-12T07:52:13;100861.25;;;7.54;82.38
52745;BME280;38637;49.984;20.426;2022-11-12T07:54:38;100900.66;;;7.85;81.46
52745;BME280;38637;49.984;20.426;2022-11-12T07:57:04;100892.06;;;7.81;81.12
52745;BME280;38637;49.984;20.426;2022-11-12T07:59:29;100893.13;;;7.87;81.33
52745;BME280;38637;49.984;20.426;2022-11-12T08:01:54;100888.13;;;7.90;80.84
52745;BME280;38637;49.984;20.426;2022-11-12T08:04:20;100895.47;;;8.03;80.70
52745;BME280;38637;49.984;20.426;2022-11-12T08:06:45;100908.44;;;8.21;80.78
52745;BME280;38637;49.984;20.426;2022-11-12T08:09:14;100893.38;;;8.12;79.19
52745;BME280;38637;49.984;20.426;2022-11-12T08:11:39;100905.94;;;8.19;78.95
52745;BME280;38637;49.984;20.426;2022-11-12T08:14:06;100919.97;;;8.36;79.17
52745;BME280;38637;49.984;20.426;2022-11-12T08:16:31;100894.00;;;8.20;79.48
52745;BME280;38637;49.984;20.426;2022-11-12T08:18:57;100919.81;;;8.51;79.80
52745;BME280;38637;49.984;20.426;2022-11-12T08:21:22;100917.47;;;8.61;79.78
52745;BME280;38637;49.984;20.426;2022-11-12T08:23:48;100924.38;;;8.70;78.98
52745;BME280;38637;49.984;20.426;2022-11-12T08:26:15;100917.69;;;8.80;78.97
52745;BME280;38637;49.984;20.426;2022-11-12T08:28:41;100850.69;;;8.45;78.48
52745;BME280;38637;49.984;20.426;2022-11-12T08:31:20;100928.75;;;8.98;78.37
52745;BME280;38637;49.984;20.426;2022-11-12T08:33:46;100910.53;;;8.92;77.88
52745;BME280;38637;49.984;20.426;2022-11-12T08:36:13;100924.09;;;9.12;77.71
52745;BME280;38637;49.984;20.426;2022-11-12T08:38:39;100933.09;;;9.19;77.51
52745;BME280;38637;49.984;20.426;2022-11-12T08:41:07;100920.91;;;9.28;77.80
52745;BME280;38637;49.984;20.426;2022-11-12T08:43:34;100927.16;;;9.35;77.54
52745;BME280;38637;49.984;20.426;2022-11-12T08:46:00;100928.81;;;9.43;77.14
52745;BME280;38637;49.984;20.426;2022-11-12T08:48:27;100932.78;;;9.47;76.43
52745;BME280;38637;49.984;20.426;2022-11-12T08:50:53;100925.63;;;9.53;76.33
52745;BME280;38637;49.984;20.426;2022-11-12T08:53:20;100932.94;;;9.59;75.92
52745;BME280;38637;49.984;20.426;2022-11-12T08:55:46;100924.72;;;9.65;75.79
52745;BME280;38637;49.984;20.426;2022-11-12T08:58:12;100903.81;;;9.53;75.64
52745;BME280;38637;49.984;20.426;2022-11-12T09:00:40;100917.38;;;9.66;75.94
52745;BME280;38637;49.984;20.426;2022-11-12T09:03:06;100939.13;;;9.86;75.58
52745;BME280;38637;49.984;20.426;2022-11-12T09:05:35;100936.94;;;9.95;74.93
52745;BME280;38637;49.984;20.426;2022-11-12T09:08:09;100944.69;;;10.04;75.39
52745;BME280;38637;49.984;20.426;2022-11-12T09:10:36;100937.28;;;10.11;75.15
52745;BME280;38637;49.984;20.426;2022-11-12T09:13:02;100942.47;;;10.20;75.03
52745;BME280;38637;49.984;20.426;2022-11-12T09:15:28;100933.41;;;10.26;73.92
52745;BME280;38637;49.984;20.426;2022-11-12T09:17:55;100923.94;;;10.28;74.17
52745;BME280;38637;49.984;20.426;2022-11-12T09:20:21;100931.81;;;10.43;74.13
52745;BME280;38637;49.984;20.426;2022-11-12T09:22:46;100921.97;;;10.42;74.20
52745;BME280;38637;49.984;20.426;2022-11-12T09:25:11;100904.56;;;10.37;73.89
52745;BME280;38637;49.984;20.426;2022-11-12T09:27:36;100900.66;;;10.51;73.39
52745;BME280;38637;49.984;20.426;2022-11-12T09:30:02;100910.47;;;10.58;73.33
52745;BME280;38637;49.984;20.426;2022-11-12T09:32:28;100920.22;;;10.73;72.53
52745;BME280;38637;49.984;20.426;2022-11-12T09:34:54;100910.94;;;10.74;72.58
52745;BME280;38637;49.984;20.426;2022-11-12T09:37:19;100918.66;;;10.84;72.74
52745;BME280;38637;49.984;20.426;2022-11-12T09:39:44;100900.66;;;10.76;72.75
52745;BME280;38637;49.984;20.426;2022-11-12T09:42:15;100914.34;;;10.94;72.41
52745;BME280;38637;49.984;20.426;2022-11-12T09:44:43;100916.41;;;10.99;72.03
52745;BME280;38637;49.984;20.426;2022-11-12T09:47:19;100893.31;;;10.95;71.97
52745;BME280;38637;49.984;20.426;2022-11-12T09:49:54;100913.28;;;11.14;72.08
52745;BME280;38637;49.984;20.426;2022-11-12T09:52:27;100907.75;;;11.20;71.50
52745;BME280;38637;49.984;20.426;2022-11-12T09:55:06;100907.88;;;11.25;70.74
52745;BME280;38637;49.984;20.426;2022-11-12T09:57:33;100914.34;;;11.31;70.04
52745;BME280;38637;49.984;20.426;2022-11-12T09:59:58;100916.31;;;11.42;68.86
52745;BME280;38637;49.984;20.426;2022-11-12T10:02:35;100916.69;;;11.46;68.07
52745;BME280;38637;49.984;20.426;2022-11-12T10:05:31;100915.78;;;11.52;67.71
52745;BME280;38637;49.984;20.426;2022-11-12T10:11:24;100899.13;;;11.54;67.62
52745;BME280;38637;49.984;20.426;2022-11-12T10:16:34;100919.00;;;11.79;67.03
52745;BME280;38637;49.984;20.426;2022-11-12T10:24:20;100914.44;;;11.91;66.08
52745;BME280;38637;49.984;20.426;2022-11-12T10:26:47;100908.03;;;11.98;66.33
52745;BME280;38637;49.984;20.426;2022-11-12T10:29:37;100904.38;;;12.04;66.15
52745;BME280;38637;49.984;20.426;2022-11-12T10:32:04;100910.81;;;12.09;65.14
52745;BME280;38637;49.984;20.426;2022-11-12T10:34:29;100892.84;;;12.13;65.70
52745;BME280;38637;49.984;20.426;2022-11-12T10:39:41;100897.50;;;12.25;65.01
52745;BME280;38637;49.984;20.426;2022-11-12T10:42:14;100901.66;;;12.27;64.66
52745;BME280;38637;49.984;20.426;2022-11-12T10:44:40;100892.88;;;12.25;65.36
52745;BME280;38637;49.984;20.426;2022-11-12T10:49:42;100883.09;;;12.29;65.42
52745;BME280;38637;49.984;20.426;2022-11-12T10:52:20;100888.59;;;12.41;65.27
52745;BME280;38637;49.984;20.426;2022-11-12T10:54:46;100887.28;;;12.44;65.65
52745;BME280;38637;49.984;20.426;2022-11-12T10:57:25;100887.78;;;12.52;65.71
52745;BME280;38637;49.984;20.426;2022-11-12T11:02:35;100874.78;;;12.59;65.83
52745;BME280;38637;49.984;20.426;2022-11-12T11:07:48;100868.97;;;12.68;65.57
52745;BME280;38637;49.984;20.426;2022-11-12T11:10:34;100868.50;;;12.71;65.27
52745;BME280;38637;49.984;20.426;2022-11-12T11:13:17;100857.41;;;12.65;63.90
52745;BME280;38637;49.984;20.426;2022-11-12T11:15:57;100855.00;;;12.69;64.09
52745;BME280;38637;49.984;20.426;2022-11-12T11:18:23;100856.91;;;12.69;64.62
52745;BME280;38637;49.984;20.426;2022-11-12T11:23:55;100853.56;;;12.78;63.96
52745;BME280;38637;49.984;20.426;2022-11-12T11:31:54;100850.13;;;12.83;64.20
52745;BME280;38637;49.984;20.426;2022-11-12T11:48:46;100838.03;;;13.07;64.73
52745;BME280;38637;49.984;20.426;2022-11-12T11:56:55;100839.81;;;13.14;64.78
52745;BME280;38637;49.984;20.426;2022-11-12T12:02:21;100836.59;;;13.17;64.84
52745;BME280;38637;49.984;20.426;2022-11-12T12:05:42;100832.75;;;13.18;65.32
52745;BME280;38637;49.984;20.426;2022-11-12T12:11:02;100825.25;;;13.25;65.56
52745;BME280;38637;49.984;20.426;2022-11-12T12:16:23;100811.41;;;13.20;65.75
52745;BME280;38637;49.984;20.426;2022-11-12T12:21:49;100818.78;;;13.31;66.03
52745;BME280;38637;49.984;20.426;2022-11-12T12:24:23;100824.03;;;13.32;65.82
52745;BME280;38637;49.984;20.426;2022-11-12T12:26:56;100796.75;;;13.14;65.54
52745;BME280;38637;49.984;20.426;2022-11-12T12:29:36;100817.88;;;13.25;65.93
52745;BME280;38637;49.984;20.426;2022-11-12T12:32:32;100799.13;;;13.22;65.50
52745;BME280;38637;49.984;20.426;2022-11-12T12:37:46;100818.66;;;13.38;65.65
52745;BME280;38637;49.984;20.426;2022-11-12T12:40:33;100823.66;;;13.41;65.80
52745;BME280;38637;49.984;20.426;2022-11-12T12:43:25;100814.84;;;13.39;65.64
52745;BME280;38637;49.984;20.426;2022-11-12T12:45:56;100821.47;;;13.43;65.68
52745;BME280;38637;49.984;20.426;2022-11-12T12:48:28;100826.16;;;13.42;65.33
52745;BME280;38637;49.984;20.426;2022-11-12T12:50:55;100819.34;;;13.45;65.63
52745;BME280;38637;49.984;20.426;2022-11-12T12:55:50;100811.59;;;13.42;65.58
52745;BME280;38637;49.984;20.426;2022-11-12T12:58:28;100821.16;;;13.39;65.24
52745;BME280;38637;49.984;20.426;2022-11-12T13:00:59;100814.34;;;13.42;65.00
52745;BME280;38637;49.984;20.426;2022-11-12T13:19:33;100801.41;;;13.14;65.00
52745;BME280;38637;49.984;20.426;2022-11-12T13:43:41;100824.75;;;13.28;64.95
52745;BME280;38637;49.984;20.426;2022-11-12T13:45:46;100799.38;;;13.09;65.14
52745;BME280;38637;49.984;20.426;2022-11-12T13:49:01;100783.06;;;13.02;65.29
52745;BME280;38637;49.984;20.426;2022-11-12T13:51:11;100821.28;;;13.21;65.31
52745;BME280;38637;49.984;20.426;2022-11-12T13:53:38;100829.19;;;13.17;65.55
52745;BME280;38637;49.984;20.426;2022-11-12T13:56:03;100796.94;;;12.96;65.48
52745;BME280;38637;49.984;20.426;2022-11-12T13:58:33;100823.59;;;13.12;65.49
52745;BME280;38637;49.984;20.426;2022-11-12T14:01:03;100823.00;;;13.10;65.60
52745;BME280;38637;49.984;20.426;2022-11-12T14:03:41;100824.31;;;13.07;65.71
52745;BME280;38637;49.984;20.426;2022-11-12T14:11:41;100817.44;;;12.93;65.75
52745;BME280;38637;49.984;20.426;2022-11-12T14:17:32;100808.06;;;12.77;66.15
52745;BME280;38637;49.984;20.426;2022-11-12T14:20:36;100817.09;;;12.78;66.40
52745;BME280;38637;49.984;20.426;2022-11-12T14:23:10;100808.53;;;12.62;66.62
52745;BME280;38637;49.984;20.426;2022-11-12T14:25:45;100788.75;;;12.49;66.94
52745;BME280;38637;49.984;20.426;2022-11-12T14:28:31;100780.69;;;12.42;67.09
52745;BME280;38637;49.984;20.426;2022-11-12T14:30:59;100761.88;;;12.22;67.15
52745;BME280;38637;49.984;20.426;2022-11-12T14:33:26;100782.84;;;12.28;67.47
52745;BME280;38637;49.984;20.426;2022-11-12T14:35:54;100807.84;;;12.44;67.62
52745;BME280;38637;49.984;20.426;2022-11-12T14:38:30;100818.06;;;12.36;67.68
52745;BME280;38637;49.984;20.426;2022-11-12T14:41:00;100811.53;;;12.26;68.11
52745;BME280;38637;49.984;20.426;2022-11-12T14:43:34;100772.19;;;11.96;68.16
52745;BME280;38637;49.984;20.426;2022-11-12T14:46:01;100780.41;;;11.96;68.42
52745;BME280;38637;49.984;20.426;2022-11-12T14:48:30;100794.97;;;11.97;68.70